Time;durP1;ratioP1;P1;durP2;ratioP2;P2;SDS_P1;SDS_P2;PMS_P1;PMS_P2;Temp;Humidity;BMP_temperature;BMP_pressure;BME280_temperature;BME280_humidity;BME280_pressure;Samples;Min_cycle;Max_cycle;Signal;HPM_P1;HPM_P2
2021/03/04 00:01:52;;;;;;;82.23;41.43;;;9.30;99.90;;;;;;4959140;29;20811;-50
2021/03/04 00:04:21;;;;;;;64.90;40.80;;;9.20;99.90;;;;;;4960255;29;20826;-46
2021/03/04 00:06:49;;;;;;;73.07;42.87;;;9.20;99.90;;;;;;4959368;29;20473;-50
2021/03/04 00:09:18;;;;;;;73.27;41.40;;;9.20;99.90;;;;;;4958980;29;20452;-50
2021/03/04 00:11:46;;;;;;;64.93;40.53;;;9.20;99.90;;;;;;4958809;29;20745;-47
2021/03/04 00:14:14;;;;;;;71.20;40.50;;;9.10;99.90;;;;;;4958852;29;20828;-49
2021/03/04 00:16:42;;;;;;;79.27;42.03;;;9.10;99.90;;;;;;4958685;29;20825;-49
2021/03/04 00:19:12;;;;;;;69.60;39.30;;;9.10;99.90;;;;;;4959349;29;20981;-48
2021/03/04 00:21:42;;;;;;;74.00;45.40;;;9.10;99.90;;;;;;4959220;29;20490;-46
2021/03/04 00:24:11;;;;;;;69.17;40.63;;;9.00;99.90;;;;;;4958640;29;20988;-49
2021/03/04 00:26:39;;;;;;;76.90;44.97;;;9.00;99.90;;;;;;4959466;29;20514;-50
2021/03/04 00:29:07;;;;;;;77.93;42.07;;;8.90;99.90;;;;;;4959171;29;20448;-51
2021/03/04 00:31:35;;;;;;;79.13;43.50;;;8.90;99.90;;;;;;4958830;29;20786;-46
2021/03/04 00:34:03;;;;;;;95.20;48.37;;;8.90;99.90;;;;;;4958992;29;20808;-47
2021/03/04 00:36:32;;;;;;;81.83;47.17;;;8.90;99.90;;;;;;4959457;29;20931;-51
2021/03/04 00:39:02;;;;;;;72.50;44.10;;;8.90;99.90;;;;;;4959140;29;20789;-49
2021/03/04 00:41:30;;;;;;;80.00;45.30;;;8.90;99.90;;;;;;4959443;29;20452;-48
2021/03/04 00:43:59;;;;;;;83.23;41.27;;;8.90;99.90;;;;;;4964349;28;20475;-46
2021/03/04 00:46:27;;;;;;;70.73;42.30;;;8.80;99.90;;;;;;4971072;28;20785;-50
2021/03/04 00:48:55;;;;;;;70.27;41.50;;;8.70;99.90;;;;;;4977973;28;21080;-49
2021/03/04 00:51:23;;;;;;;78.67;42.60;;;8.70;99.90;;;;;;4972314;28;20578;-46
2021/03/04 00:53:52;;;;;;;73.60;41.30;;;8.70;99.90;;;;;;4960928;28;20798;-49
2021/03/04 00:56:21;;;;;;;70.33;39.77;;;8.70;99.90;;;;;;4959236;29;20775;-47
2021/03/04 00:58:49;;;;;;;75.83;37.83;;;8.60;99.90;;;;;;4959930;29;20460;-48
2021/03/04 01:01:18;;;;;;;74.90;40.37;;;8.60;99.90;;;;;;4959533;29;20447;-47
2021/03/04 01:03:46;;;;;;;83.63;40.00;;;8.50;99.90;;;;;;4960681;29;20480;-44
2021/03/04 01:06:17;;;;;;;76.00;40.50;;;8.40;99.90;;;;;;4961559;29;20909;-49
2021/03/04 01:08:47;;;;;;;73.47;41.50;;;8.40;99.90;;;;;;4961376;29;20617;-48
2021/03/04 01:11:15;;;;;;;73.70;38.37;;;8.30;99.90;;;;;;4961059;29;20761;-49
2021/03/04 01:13:46;;;;;;;85.47;43.17;;;8.30;99.90;;;;;;4959127;29;20781;-48
2021/03/04 01:16:14;;;;;;;84.13;43.70;;;8.30;99.90;;;;;;4959426;29;20451;-48
2021/03/04 01:18:42;;;;;;;77.30;42.33;;;8.30;99.90;;;;;;4958640;29;20808;-48
2021/03/04 01:21:11;;;;;;;78.03;42.27;;;8.20;99.90;;;;;;4959319;28;20794;-50
2021/03/04 01:23:39;;;;;;;75.97;40.33;;;8.20;99.90;;;;;;4966069;28;20866;-49
2021/03/04 01:26:08;;;;;;;75.60;39.90;;;8.30;99.90;;;;;;4978022;28;21069;-50
2021/03/04 01:28:36;;;;;;;94.43;40.23;;;8.20;99.90;;;;;;4978529;28;20907;-49
2021/03/04 01:31:08;;;;;;;70.30;40.37;;;8.20;99.90;;;;;;4978490;28;20839;-47
2021/03/04 01:33:36;;;;;;;83.77;48.77;;;8.10;99.90;;;;;;4969862;28;20960;-49
2021/03/04 01:36:05;;;;;;;71.90;41.40;;;8.10;99.90;;;;;;4968366;28;20474;-48
2021/03/04 01:38:32;;;;;;;73.93;40.47;;;8.10;99.90;;;;;;4972585;28;20882;-49
2021/03/04 01:41:01;;;;;;;102.53;43.20;;;8.10;99.90;;;;;;4972202;28;20799;-48
2021/03/04 01:43:29;;;;;;;70.40;41.77;;;8.00;99.90;;;;;;4971266;28;20853;-47
2021/03/04 01:45:57;;;;;;;80.80;41.80;;;8.00;99.90;;;;;;4972137;28;20963;-48
2021/03/04 01:48:27;;;;;;;81.53;41.60;;;8.00;99.90;;;;;;4966169;28;20455;-51
2021/03/04 01:50:55;;;;;;;80.40;42.87;;;8.00;99.90;;;;;;4972600;28;20451;-50
2021/03/04 01:53:24;;;;;;;77.50;41.73;;;8.00;99.90;;;;;;4964160;28;20831;-49
2021/03/04 01:55:54;;;;;;;74.60;42.67;;;7.90;99.90;;;;;;4967523;28;20439;-46
2021/03/04 01:58:22;;;;;;;78.53;44.67;;;7.90;99.90;;;;;;4968702;28;20827;-47
2021/03/04 02:00:51;;;;;;;81.60;44.67;;;7.80;99.90;;;;;;4972685;28;20459;-48
2021/03/04 02:03:20;;;;;;;93.17;46.00;;;7.80;99.90;;;;;;4975744;28;20868;-49
2021/03/04 02:05:50;;;;;;;81.50;44.40;;;7.70;99.90;;;;;;4960119;29;20502;-49
2021/03/04 02:08:26;;;;;;;83.30;45.77;;;7.80;99.90;;;;;;4972153;28;20836;-50
2021/03/04 02:10:59;;;;;;;92.67;46.30;;;7.70;99.90;;;;;;4979925;28;20851;-51
2021/03/04 02:13:33;;;;;;;84.70;48.30;;;7.60;99.90;;;;;;4974456;28;20821;-48
2021/03/04 02:16:05;;;;;;;82.23;48.33;;;7.50;99.90;;;;;;4969776;28;20820;-51
2021/03/04 02:18:41;;;;;;;92.73;48.90;;;7.50;99.90;;;;;;4979429;28;20773;-47
2021/03/04 02:21:37;;;;;;;88.87;46.77;;;7.50;99.90;;;;;;4979158;28;20465;-48
2021/03/04 02:24:41;;;;;;;84.17;47.60;;;7.50;99.90;;;;;;4979069;28;20836;-53
2021/03/04 02:27:14;;;;;;;93.23;48.73;;;7.40;99.90;;;;;;4963104;28;20800;-49
2021/03/04 02:29:45;;;;;;;87.40;50.90;;;7.50;99.90;;;;;;4978811;28;20774;-49
2021/03/04 02:32:15;;;;;;;87.40;48.77;;;7.50;99.90;;;;;;4979068;28;20893;-48
2021/03/04 02:34:49;;;;;;;78.30;43.77;;;7.40;99.90;;;;;;4979206;28;20750;-50
2021/03/04 02:37:20;;;;;;;89.57;50.47;;;7.50;99.90;;;;;;4963725;28;20823;-52
2021/03/04 02:39:52;;;;;;;84.43;46.40;;;7.40;99.90;;;;;;4979059;28;20816;-51
2021/03/04 02:42:24;;;;;;;86.53;48.53;;;7.40;99.90;;;;;;4967014;28;20844;-50
2021/03/04 02:44:55;;;;;;;113.37;54.87;;;7.30;99.90;;;;;;4975411;28;20526;-49
2021/03/04 02:47:24;;;;;;;92.13;49.33;;;7.30;99.90;;;;;;4964297;28;20792;-47
2021/03/04 02:49:53;;;;;;;95.80;49.67;;;7.30;99.90;;;;;;4979289;28;20773;-47
2021/03/04 02:52:22;;;;;;;91.17;48.20;;;7.30;99.90;;;;;;4979743;28;20945;-47
2021/03/04 02:54:51;;;;;;;83.07;46.23;;;7.20;99.90;;;;;;4963504;28;20805;-46
2021/03/04 02:57:22;;;;;;;88.37;48.10;;;7.20;99.90;;;;;;4979901;28;20789;-47
2021/03/04 02:59:52;;;;;;;92.57;52.37;;;7.20;99.90;;;;;;4980745;28;20774;-46
2021/03/04 03:02:21;;;;;;;99.80;51.23;;;7.10;99.90;;;;;;4980954;28;20800;-45
2021/03/04 03:04:49;;;;;;;105.50;49.60;;;7.10;99.90;;;;;;4982570;28;20800;-46
2021/03/04 03:07:20;;;;;;;98.67;51.87;;;7.10;99.90;;;;;;4979465;28;20801;-47
2021/03/04 03:09:48;;;;;;;103.87;52.17;;;7.10;99.90;;;;;;4978878;28;21036;-51
2021/03/04 03:12:20;;;;;;;99.43;53.80;;;7.00;99.90;;;;;;4966878;28;20463;-47
2021/03/04 03:14:49;;;;;;;101.53;55.27;;;7.00;99.90;;;;;;4959591;29;20839;-46
2021/03/04 03:17:17;;;;;;;102.30;54.07;;;7.00;99.90;;;;;;4963706;28;20822;-51
2021/03/04 03:19:45;;;;;;;106.00;54.07;;;7.00;99.90;;;;;;4978697;28;20466;-49
2021/03/04 03:22:13;;;;;;;118.37;53.67;;;7.00;99.90;;;;;;4978549;28;20506;-47
2021/03/04 03:24:41;;;;;;;110.63;53.97;;;6.90;99.90;;;;;;4978556;28;21178;-49
2021/03/04 03:27:10;;;;;;;109.13;55.50;;;6.90;99.90;;;;;;4979500;28;20787;-46
2021/03/04 03:29:39;;;;;;;107.43;57.27;;;6.90;99.90;;;;;;4979166;28;20820;-48
2021/03/04 03:32:08;;;;;;;111.03;56.77;;;6.80;99.90;;;;;;4978340;28;20776;-51
2021/03/04 03:34:36;;;;;;;100.13;50.27;;;6.80;99.90;;;;;;4964272;28;20789;-49
2021/03/04 03:37:06;;;;;;;107.83;58.33;;;6.80;99.90;;;;;;4961428;28;20837;-48
2021/03/04 03:39:35;;;;;;;101.77;52.70;;;6.80;99.90;;;;;;4978509;28;20467;-47
2021/03/04 03:42:04;;;;;;;96.73;51.90;;;6.70;99.90;;;;;;4978376;28;20757;-48
2021/03/04 03:44:32;;;;;;;110.13;52.50;;;6.80;99.90;;;;;;4977542;28;20887;-49
2021/03/04 03:47:01;;;;;;;99.90;53.00;;;6.70;99.90;;;;;;4971486;28;20470;-46
2021/03/04 03:52:03;;;;;;;91.13;48.67;;;6.70;99.90;;;;;;5111209;22;20499;-50
2021/03/04 03:54:32;;;;;;;91.30;47.50;;;6.80;99.90;;;;;;5014824;28;20496;-49
2021/03/04 03:57:01;;;;;;;76.53;44.60;;;6.80;99.90;;;;;;5014465;28;20787;-47
2021/03/04 03:59:30;;;;;;;83.10;43.43;;;6.70;99.90;;;;;;5015402;28;20851;-48
2021/03/04 04:01:59;;;;;;;84.57;43.30;;;6.60;99.90;;;;;;5017896;28;20459;-52
2021/03/04 04:04:30;;;;;;;75.33;41.77;;;6.60;99.90;;;;;;5018015;28;20821;-52
2021/03/04 04:06:59;;;;;;;96.87;44.53;;;6.60;99.90;;;;;;5017241;28;20509;-52
2021/03/04 04:09:29;;;;;;;97.10;45.67;;;6.60;99.90;;;;;;5017514;28;20760;-50
2021/03/04 04:11:57;;;;;;;94.47;46.43;;;6.50;99.90;;;;;;5014676;28;20798;-48
2021/03/04 04:14:25;;;;;;;80.43;43.87;;;6.50;99.90;;;;;;5013993;28;20842;-53
2021/03/04 04:16:55;;;;;;;79.40;43.63;;;6.50;99.90;;;;;;5015346;28;20953;-48
2021/03/04 04:19:24;;;;;;;82.10;42.93;;;6.60;99.90;;;;;;5018370;28;20952;-48
2021/03/04 04:21:54;;;;;;;85.80;45.27;;;6.60;99.90;;;;;;5019073;28;20799;-47
2021/03/04 04:24:22;;;;;;;81.67;44.67;;;6.60;99.90;;;;;;5014124;28;20856;-47
2021/03/04 04:26:50;;;;;;;88.10;42.30;;;6.70;99.90;;;;;;5013972;28;21020;-50
2021/03/04 04:29:19;;;;;;;82.83;44.27;;;6.80;99.90;;;;;;5014171;28;20798;-49
2021/03/04 04:31:48;;;;;;;80.47;43.30;;;6.70;99.90;;;;;;5015650;28;20786;-45
2021/03/04 04:34:17;;;;;;;71.53;39.10;;;6.70;99.90;;;;;;5016284;28;20464;-50
2021/03/04 04:36:45;;;;;;;75.27;37.13;;;6.70;99.90;;;;;;5015310;28;20805;-47
2021/03/04 04:39:14;;;;;;;69.23;36.90;;;6.50;99.90;;;;;;5014681;28;20910;-50
2021/03/04 04:41:42;;;;;;;72.63;35.50;;;6.50;99.90;;;;;;5015081;28;20459;-48
2021/03/04 04:44:10;;;;;;;74.40;36.37;;;6.50;99.90;;;;;;5009766;28;20862;-50
2021/03/04 04:46:39;;;;;;;68.73;33.80;;;6.40;99.90;;;;;;5018679;28;20461;-47
2021/03/04 04:49:07;;;;;;;76.70;38.40;;;6.40;99.90;;;;;;5018232;28;20784;-47
2021/03/04 04:51:35;;;;;;;73.07;34.37;;;6.30;99.90;;;;;;5013305;28;20485;-49
2021/03/04 04:54:03;;;;;;;72.77;36.77;;;6.20;99.90;;;;;;5013379;28;20854;-48
2021/03/04 04:56:33;;;;;;;73.60;35.13;;;6.10;99.90;;;;;;5013406;28;20841;-49
2021/03/04 05:17:09;;;;;;;73.47;35.57;;;5.80;99.90;;;;;;6061808;22;20376;-45
2021/03/04 05:19:37;;;;;;;79.70;37.93;;;5.70;99.90;;;;;;5015980;28;20453;-47
2021/03/04 05:22:05;;;;;;;74.70;35.10;;;5.80;99.90;;;;;;5011012;28;20818;-44
2021/03/04 05:24:33;;;;;;;78.50;36.47;;;5.80;99.90;;;;;;5005695;28;21128;-48
2021/03/04 05:27:01;;;;;;;69.03;31.73;;;5.80;99.90;;;;;;5007899;28;20926;-48
2021/03/04 05:29:28;;;;;;;73.13;33.40;;;5.70;99.90;;;;;;5008834;28;20473;-48
2021/03/04 05:31:57;;;;;;;77.47;35.70;;;5.70;99.90;;;;;;5010250;28;20521;-50
2021/03/04 05:34:26;;;;;;;72.63;34.90;;;5.70;99.90;;;;;;5022809;28;20934;-48
2021/03/04 05:36:54;;;;;;;80.50;37.33;;;5.70;99.90;;;;;;5003236;28;20485;-50
2021/03/04 05:39:22;;;;;;;82.77;36.13;;;5.70;99.90;;;;;;5004456;28;20768;-50
2021/03/04 05:41:51;;;;;;;84.50;34.20;;;5.60;99.90;;;;;;5013410;28;20831;-47
2021/03/04 05:44:20;;;;;;;73.53;34.97;;;5.60;99.90;;;;;;5013229;28;20802;-49
2021/03/04 05:46:48;;;;;;;78.00;34.43;;;5.60;99.90;;;;;;5010172;28;20771;-50
2021/03/04 05:49:20;;;;;;;66.73;30.63;;;5.50;99.90;;;;;;5008147;28;20783;-46
2021/03/04 05:51:54;;;;;;;77.07;32.97;;;5.50;99.90;;;;;;5002107;28;20492;-49
2021/03/04 05:54:24;;;;;;;73.20;34.93;;;5.50;99.90;;;;;;5015011;28;20456;-47
2021/03/04 05:56:51;;;;;;;79.63;34.80;;;5.40;99.90;;;;;;5020859;28;20484;-48
2021/03/04 05:59:20;;;;;;;74.90;29.70;;;5.30;99.90;;;;;;5010933;28;20453;-47
2021/03/04 06:01:49;;;;;;;68.80;26.57;;;5.40;99.90;;;;;;5011809;28;20494;-45
2021/03/04 06:04:17;;;;;;;68.87;30.23;;;5.30;99.90;;;;;;5029491;28;20499;-45
2021/03/04 06:06:44;;;;;;;73.07;27.40;;;5.20;99.90;;;;;;5027371;28;20471;-46
2021/03/04 06:09:14;;;;;;;63.90;26.90;;;5.20;99.90;;;;;;5025130;28;20470;-47
2021/03/04 06:11:42;;;;;;;59.90;28.93;;;5.20;99.90;;;;;;5031350;28;20452;-47
2021/03/04 06:14:10;;;;;;;66.27;28.80;;;5.30;99.90;;;;;;5032856;28;20798;-46
2021/03/04 06:16:39;;;;;;;63.00;29.40;;;5.40;99.90;;;;;;5032857;28;20554;-49
2021/03/04 06:19:17;;;;;;;64.13;26.00;;;5.40;99.90;;;;;;5020779;28;20961;-51
2021/03/04 06:21:46;;;;;;;62.47;26.40;;;5.50;99.90;;;;;;5033657;28;20749;-48
2021/03/04 06:24:15;;;;;;;62.83;26.10;;;5.50;99.90;;;;;;5032066;28;20503;-47
2021/03/04 06:26:55;;;;;;;61.90;26.10;;;5.50;99.90;;;;;;5026921;28;20810;-47
2021/03/04 06:29:25;;;;;;;66.67;27.53;;;5.50;99.90;;;;;;5022225;28;20491;-48
2021/03/04 06:32:11;;;;;;;74.00;28.40;;;5.60;99.90;;;;;;5022200;28;20906;-45
2021/03/04 06:34:39;;;;;;;68.57;30.90;;;5.60;99.90;;;;;;5022105;28;20759;-47
2021/03/04 06:37:08;;;;;;;64.13;29.00;;;5.60;99.90;;;;;;5022623;28;20841;-49
2021/03/04 06:39:45;;;;;;;68.53;28.00;;;5.60;99.90;;;;;;5022161;28;20837;-48
2021/03/04 06:42:16;;;;;;;66.20;24.40;;;5.70;99.90;;;;;;5021608;28;20793;-45
2021/03/04 06:44:46;;;;;;;55.03;26.77;;;5.60;99.90;;;;;;5022211;28;20480;-47
2021/03/04 06:47:21;;;;;;;53.30;24.33;;;5.60;99.90;;;;;;5021567;28;20817;-47
2021/03/04 06:49:50;;;;;;;66.80;30.17;;;5.70;99.90;;;;;;5016448;28;20507;-50
2021/03/04 06:52:26;;;;;;;67.37;29.10;;;5.80;99.90;;;;;;5017275;28;20801;-52
2021/03/04 06:54:56;;;;;;;65.13;29.50;;;5.70;99.90;;;;;;5019194;28;20795;-50
2021/03/04 06:57:24;;;;;;;79.07;31.77;;;5.60;99.90;;;;;;5018708;28;21001;-52
2021/03/04 06:59:53;;;;;;;77.97;32.73;;;5.60;99.90;;;;;;5015845;28;20469;-47
2021/03/04 07:02:29;;;;;;;63.57;29.67;;;5.70;99.90;;;;;;5015658;28;20963;-52
2021/03/04 07:05:01;;;;;;;66.33;30.20;;;5.70;99.90;;;;;;5018191;28;20477;-51
2021/03/04 07:07:31;;;;;;;65.13;29.37;;;5.70;99.90;;;;;;5018865;28;20464;-47
2021/03/04 07:10:01;;;;;;;58.47;25.97;;;5.80;99.90;;;;;;5018777;28;20780;-47
2021/03/04 07:12:29;;;;;;;63.80;30.93;;;5.80;99.90;;;;;;5018808;28;20449;-48
2021/03/04 07:14:58;;;;;;;57.00;26.50;;;5.80;99.90;;;;;;5015911;28;20750;-48
2021/03/04 07:17:29;;;;;;;60.93;29.23;;;5.80;99.90;;;;;;5016952;28;20806;-49
2021/03/04 07:20:02;;;;;;;59.30;28.03;;;5.70;99.90;;;;;;5015868;28;20780;-49
2021/03/04 07:22:33;;;;;;;55.67;27.03;;;5.70;99.90;;;;;;5016085;28;20897;-47
2021/03/04 07:25:02;;;;;;;68.50;26.97;;;5.70;99.90;;;;;;5014874;28;20839;-45
2021/03/04 07:27:31;;;;;;;52.97;26.10;;;5.70;99.90;;;;;;5015259;28;20857;-51
2021/03/04 07:30:00;;;;;;;58.93;26.13;;;5.70;99.90;;;;;;5015033;28;20777;-50
2021/03/04 07:32:29;;;;;;;56.57;25.90;;;5.60;99.90;;;;;;5015526;28;20811;-50
2021/03/04 07:34:57;;;;;;;63.90;26.87;;;5.60;99.90;;;;;;5015936;28;20778;-51
2021/03/04 07:37:26;;;;;;;57.50;27.43;;;5.60;99.90;;;;;;5017911;28;20763;-49
2021/03/04 07:40:00;;;;;;;64.67;29.53;;;5.60;99.90;;;;;;5015961;28;20819;-48
2021/03/04 07:42:30;;;;;;;61.67;27.70;;;5.50;99.90;;;;;;5015713;28;20765;-48
2021/03/04 07:44:58;;;;;;;72.43;26.33;;;5.50;99.90;;;;;;5014993;28;20512;-47
2021/03/04 07:47:27;;;;;;;57.70;26.73;;;5.40;99.90;;;;;;5015844;28;20868;-48
2021/03/04 07:49:56;;;;;;;55.20;26.10;;;5.40;99.90;;;;;;5014845;28;20834;-48
2021/03/04 07:52:25;;;;;;;58.03;24.80;;;5.50;99.90;;;;;;5014905;28;20712;-48
2021/03/04 07:54:55;;;;;;;57.63;25.33;;;5.40;99.90;;;;;;5015325;28;20756;-45
2021/03/04 07:57:26;;;;;;;51.77;23.83;;;5.40;99.90;;;;;;5014845;28;20527;-49
2021/03/04 07:59:57;;;;;;;53.97;24.57;;;5.40;99.90;;;;;;5014781;28;20834;-46
2021/03/04 08:02:27;;;;;;;60.73;24.63;;;5.40;99.90;;;;;;5015255;28;20778;-51
2021/03/04 08:05:09;;;;;;;61.87;27.47;;;5.40;99.90;;;;;;5017309;28;21036;-45
2021/03/04 08:07:38;;;;;;;54.00;26.00;;;5.40;99.90;;;;;;5019496;28;20849;-48
2021/03/04 08:10:11;;;;;;;46.00;22.10;;;5.40;99.90;;;;;;5020283;28;20452;-45
2021/03/04 08:12:49;;;;;;;59.83;23.10;;;5.30;99.90;;;;;;5020204;28;20760;-46
2021/03/04 08:15:21;;;;;;;46.00;22.63;;;5.30;99.90;;;;;;5018018;28;20785;-45
2021/03/04 08:17:49;;;;;;;60.27;26.03;;;5.30;99.90;;;;;;5018084;28;20980;-47
2021/03/04 08:20:18;;;;;;;63.63;24.00;;;5.20;99.90;;;;;;5013515;28;20457;-48
2021/03/04 08:22:48;;;;;;;48.83;23.20;;;5.20;99.90;;;;;;5013588;28;20852;-45
2021/03/04 08:25:21;;;;;;;64.23;21.93;;;5.20;99.90;;;;;;5016981;28;20540;-47
2021/03/04 08:27:50;;;;;;;46.20;20.60;;;5.20;99.90;;;;;;5023382;28;20445;-47
2021/03/04 08:30:28;;;;;;;47.23;23.23;;;5.30;99.90;;;;;;5016343;28;20870;-49
2021/03/04 08:32:58;;;;;;;53.87;24.07;;;5.30;99.90;;;;;;5013817;28;21085;-48
2021/03/04 08:35:27;;;;;;;53.70;21.00;;;5.30;99.90;;;;;;5016670;28;20501;-47
2021/03/04 08:37:59;;;;;;;47.13;23.13;;;5.30;99.90;;;;;;5019092;28;20550;-48
2021/03/04 08:40:27;;;;;;;54.60;25.40;;;5.40;99.90;;;;;;5016405;28;20473;-45
2021/03/04 08:42:56;;;;;;;48.80;20.87;;;5.40;99.90;;;;;;5021911;28;20469;-47
2021/03/04 08:45:33;;;;;;;48.00;21.23;;;5.50;99.90;;;;;;5022347;28;20466;-52
2021/03/04 08:48:06;;;;;;;46.70;19.47;;;5.60;99.90;;;;;;5013805;28;20460;-49
2021/03/04 08:50:40;;;;;;;37.20;19.53;;;5.70;99.90;;;;;;5020150;28;20466;-46
2021/03/04 08:53:13;;;;;;;40.63;19.70;;;5.70;99.90;;;;;;5004262;28;21156;-46
2021/03/04 08:55:49;;;;;;;41.47;20.00;;;5.70;99.90;;;;;;5009937;28;20766;-48
2021/03/04 08:58:16;;;;;;;41.30;19.00;;;5.70;99.90;;;;;;5009648;28;20463;-47
2021/03/04 09:00:50;;;;;;;39.43;18.60;;;5.70;99.90;;;;;;5016352;28;20436;-45
2021/03/04 09:03:20;;;;;;;34.60;16.40;;;5.70;99.90;;;;;;5018239;28;20936;-46
2021/03/04 09:05:48;;;;;;;35.13;15.90;;;5.70;99.90;;;;;;5011423;28;20568;-46
2021/03/04 09:08:18;;;;;;;35.93;17.50;;;5.70;99.90;;;;;;5006690;28;20668;-47
2021/03/04 09:10:49;;;;;;;37.77;17.70;;;5.70;99.90;;;;;;5022611;28;20782;-47
2021/03/04 09:13:22;;;;;;;54.43;22.53;;;5.70;99.90;;;;;;5013732;28;20874;-47
2021/03/04 09:15:54;;;;;;;41.70;18.53;;;5.70;99.90;;;;;;5013674;28;20476;-52
2021/03/04 09:18:25;;;;;;;35.93;17.73;;;5.80;99.90;;;;;;5003167;28;20469;-50
2021/03/04 09:20:53;;;;;;;42.60;16.17;;;5.80;99.90;;;;;;5005944;28;20467;-59
2021/03/04 09:23:22;;;;;;;37.73;17.40;;;6.10;99.90;;;;;;5001787;28;20458;-61
2021/03/04 09:25:56;;;;;;;37.60;15.67;;;6.00;99.90;;;;;;5014535;28;20516;-61
2021/03/04 09:28:25;;;;;;;36.33;17.83;;;6.10;99.90;;;;;;4996712;28;20766;-61
2021/03/04 09:30:55;;;;;;;35.50;18.27;;;6.00;99.90;;;;;;5004500;28;20487;-61
2021/03/04 09:33:26;;;;;;;43.40;18.43;;;6.10;99.90;;;;;;5018621;28;20790;-61
2021/03/04 09:36:00;;;;;;;34.07;18.57;;;6.00;99.90;;;;;;5019123;28;20910;-59
2021/03/04 09:38:30;;;;;;;33.53;14.87;;;6.00;99.90;;;;;;5009921;28;20465;-59
2021/03/04 09:41:09;;;;;;;40.23;16.43;;;5.80;99.90;;;;;;5013993;28;20453;-62
2021/03/04 09:43:42;;;;;;;36.13;16.87;;;5.80;99.90;;;;;;5013075;28;20465;-59
2021/03/04 09:46:11;;;;;;;33.60;20.20;;;5.80;99.90;;;;;;5006379;28;20789;-61
2021/03/04 09:48:40;;;;;;;29.70;15.37;;;5.90;99.90;;;;;;5016796;28;20465;-61
2021/03/04 09:51:08;;;;;;;30.20;14.93;;;5.90;99.90;;;;;;5014289;28;20472;-61
2021/03/04 09:56:06;;;;;;;26.90;16.10;;;6.00;99.90;;;;;;5043306;23;20507;-61
2021/03/04 09:58:41;;;;;;;31.30;15.20;;;6.00;99.90;;;;;;5030540;28;20602;-61
2021/03/04 10:01:11;;;;;;;33.50;17.00;;;6.00;99.90;;;;;;5031267;28;20456;-61
2021/03/04 10:03:40;;;;;;;33.93;17.37;;;5.90;99.90;;;;;;5029672;28;20495;-61
2021/03/04 10:06:21;;;;;;;37.83;15.17;;;5.80;99.90;;;;;;5029759;28;21013;-49
2021/03/04 10:08:54;;;;;;;25.00;14.20;;;5.90;99.90;;;;;;5033841;28;20799;-48
2021/03/04 10:11:24;;;;;;;26.27;13.33;;;5.80;99.90;;;;;;5028582;28;20946;-50
2021/03/04 10:13:53;;;;;;;35.90;15.40;;;5.70;99.90;;;;;;5033025;28;20453;-47
2021/03/04 10:16:23;;;;;;;34.20;16.43;;;5.70;99.90;;;;;;5025123;28;20814;-47
2021/03/04 10:18:53;;;;;;;27.83;16.50;;;5.70;99.90;;;;;;5026163;28;21147;-46
2021/03/04 10:21:22;;;;;;;24.30;13.30;;;5.80;99.90;;;;;;5025970;28;20441;-48
2021/03/04 10:23:50;;;;;;;34.17;15.10;;;5.80;99.90;;;;;;5027567;28;20784;-50
2021/03/04 10:26:18;;;;;;;36.00;16.77;;;6.00;99.90;;;;;;5019304;28;20817;-48
2021/03/04 10:28:46;;;;;;;28.43;13.97;;;5.90;99.90;;;;;;5025111;28;20814;-50
2021/03/04 10:31:15;;;;;;;36.97;14.13;;;5.90;99.90;;;;;;5033718;28;20936;-45
2021/03/04 10:33:44;;;;;;;30.60;15.20;;;5.90;99.90;;;;;;5031254;28;20541;-46
2021/03/04 10:36:13;;;;;;;29.40;16.03;;;5.80;99.90;;;;;;5025401;28;20801;-45
2021/03/04 10:38:42;;;;;;;46.40;18.03;;;5.70;99.90;;;;;;5033973;28;20931;-46
2021/03/04 10:41:10;;;;;;;41.10;17.90;;;5.60;99.90;;;;;;5030340;28;20456;-50
2021/03/04 10:43:38;;;;;;;40.63;18.23;;;5.60;99.90;;;;;;5029290;28;20832;-47
2021/03/04 10:46:07;;;;;;;38.70;18.90;;;5.70;99.90;;;;;;5031089;28;20484;-47
2021/03/04 10:48:35;;;;;;;47.90;20.20;;;5.80;99.90;;;;;;5028038;28;20785;-46
2021/03/04 10:51:05;;;;;;;46.23;18.90;;;5.80;99.90;;;;;;5031500;28;20476;-48
2021/03/04 10:53:34;;;;;;;44.10;20.60;;;5.90;99.90;;;;;;5018911;28;20553;-52
2021/03/04 10:56:03;;;;;;;36.57;16.53;;;5.90;99.90;;;;;;5029794;28;20827;-49
2021/03/04 10:58:31;;;;;;;39.40;15.83;;;5.90;99.90;;;;;;5027168;28;20765;-51
2021/03/04 11:01:00;;;;;;;33.57;17.27;;;5.80;99.90;;;;;;5024549;28;20453;-52
2021/03/04 11:03:27;;;;;;;36.97;16.57;;;5.60;99.90;;;;;;5035757;28;21022;-48
2021/03/04 11:05:57;;;;;;;32.50;14.73;;;5.50;99.90;;;;;;5038499;28;20738;-49
2021/03/04 11:08:27;;;;;;;33.77;17.23;;;5.50;99.90;;;;;;5032044;28;20789;-48
2021/03/04 11:10:55;;;;;;;35.20;17.40;;;5.50;99.90;;;;;;5027099;28;20797;-48
2021/03/04 11:13:24;;;;;;;32.20;14.63;;;5.50;99.90;;;;;;5030425;28;20755;-47
2021/03/04 11:15:52;;;;;;;28.03;15.73;;;5.40;99.90;;;;;;5031555;28;20781;-47
2021/03/04 11:18:20;;;;;;;32.53;15.13;;;5.50;99.90;;;;;;5024705;28;20487;-48
2021/03/04 11:20:49;;;;;;;30.10;16.10;;;5.50;99.90;;;;;;5029541;28;20972;-48
2021/03/04 11:23:17;;;;;;;34.07;13.40;;;5.50;99.90;;;;;;5025727;28;20515;-44
2021/03/04 11:25:47;;;;;;;29.13;12.43;;;5.40;99.90;;;;;;4999264;28;20811;-47
2021/03/04 11:28:14;;;;;;;29.70;14.00;;;5.40;99.90;;;;;;5025585;28;20524;-53
2021/03/04 11:30:43;;;;;;;31.10;13.10;;;5.40;99.90;;;;;;5039633;28;20459;-47
2021/03/04 11:33:11;;;;;;;25.80;12.60;;;5.50;99.90;;;;;;5034157;28;20483;-46
2021/03/04 11:35:40;;;;;;;18.43;9.60;;;5.40;99.90;;;;;;5023991;28;21007;-46
2021/03/04 11:38:09;;;;;;;19.53;10.67;;;5.40;99.90;;;;;;5037816;28;20456;-45
2021/03/04 11:40:37;;;;;;;23.03;9.77;;;5.30;99.90;;;;;;5031861;28;20911;-47
2021/03/04 11:43:07;;;;;;;22.80;12.10;;;5.30;99.90;;;;;;5022795;28;20793;-45
2021/03/04 11:45:36;;;;;;;25.47;9.67;;;5.30;99.90;;;;;;5030056;28;20481;-47
2021/03/04 11:48:03;;;;;;;26.60;10.83;;;5.30;99.90;;;;;;5033365;28;20445;-46
2021/03/04 11:50:31;;;;;;;24.67;10.97;;;5.30;99.90;;;;;;5032333;28;20474;-48
2021/03/04 11:52:59;;;;;;;19.23;9.90;;;5.20;99.90;;;;;;5035067;28;20449;-45
2021/03/04 11:55:28;;;;;;;23.17;11.53;;;5.30;99.90;;;;;;5027119;28;20960;-47
2021/03/04 11:57:55;;;;;;;18.93;9.53;;;5.40;99.90;;;;;;5007962;28;20996;-47
2021/03/04 12:00:26;;;;;;;16.10;9.30;;;5.40;99.90;;;;;;5003523;28;20822;-47
2021/03/04 12:02:54;;;;;;;17.23;8.77;;;5.40;99.90;;;;;;5005114;28;20449;-49
2021/03/04 12:05:22;;;;;;;23.83;11.50;;;5.50;99.90;;;;;;5000021;28;20488;-46
2021/03/04 12:07:49;;;;;;;18.77;10.77;;;5.40;99.90;;;;;;5003497;28;20844;-50
2021/03/04 12:10:17;;;;;;;19.40;11.57;;;5.40;99.90;;;;;;5011093;28;20434;-47
2021/03/04 12:12:46;;;;;;;17.37;8.80;;;5.30;99.90;;;;;;5001190;28;20871;-47
2021/03/04 12:15:17;;;;;;;26.60;10.30;;;5.30;99.90;;;;;;5013649;28;20450;-47
2021/03/04 12:17:46;;;;;;;16.13;9.63;;;5.20;99.90;;;;;;5001297;28;20461;-45
2021/03/04 12:20:15;;;;;;;18.30;11.40;;;5.20;99.90;;;;;;5007075;28;20453;-45
2021/03/04 12:22:43;;;;;;;21.50;11.83;;;5.20;99.90;;;;;;5015830;28;20456;-48
2021/03/04 12:25:12;;;;;;;23.07;12.60;;;5.10;99.90;;;;;;5012482;28;20498;-49
2021/03/04 12:27:39;;;;;;;20.40;9.97;;;5.10;99.90;;;;;;5005829;28;20454;-46
2021/03/04 12:30:08;;;;;;;18.57;11.43;;;5.10;99.90;;;;;;5012134;28;20457;-46
2021/03/04 12:32:37;;;;;;;19.17;10.50;;;5.10;99.90;;;;;;5003647;28;20477;-46
2021/03/04 12:35:08;;;;;;;20.90;10.60;;;5.10;99.90;;;;;;5008703;28;20781;-48
2021/03/04 12:37:36;;;;;;;17.70;9.03;;;5.10;99.90;;;;;;5011486;28;20489;-47
2021/03/04 12:40:06;;;;;;;16.23;9.90;;;5.10;99.90;;;;;;5002483;28;20923;-47
2021/03/04 12:42:34;;;;;;;17.30;9.93;;;5.20;99.90;;;;;;5000236;28;20450;-48
2021/03/04 12:45:01;;;;;;;19.23;9.10;;;5.20;99.90;;;;;;5008360;28;20519;-46
2021/03/04 12:47:28;;;;;;;19.00;9.37;;;5.20;99.90;;;;;;5010135;28;20457;-47
2021/03/04 12:49:55;;;;;;;16.50;9.33;;;5.30;99.90;;;;;;5008025;28;20457;-46
2021/03/04 12:52:22;;;;;;;12.70;6.40;;;5.20;99.90;;;;;;5015014;28;20504;-45
2021/03/04 12:54:49;;;;;;;14.53;8.07;;;5.20;99.90;;;;;;5011611;28;20442;-44
2021/03/04 12:57:16;;;;;;;11.33;7.67;;;5.20;99.90;;;;;;5030971;28;20460;-47
2021/03/04 12:59:42;;;;;;;10.30;5.43;;;5.20;99.90;;;;;;5035646;28;20461;-48
2021/03/04 13:02:09;;;;;;;10.37;6.60;;;5.10;99.90;;;;;;5033385;28;21307;-52
2021/03/04 13:04:36;;;;;;;12.00;6.37;;;5.20;99.90;;;;;;5039351;28;20980;-46
2021/03/04 13:07:03;;;;;;;8.60;3.40;;;5.20;99.90;;;;;;5035866;28;20776;-48
2021/03/04 13:09:31;;;;;;;12.00;6.07;;;5.20;99.90;;;;;;5043131;28;20517;-47
2021/03/04 13:11:58;;;;;;;11.57;6.37;;;5.10;99.90;;;;;;5046070;28;21261;-45
2021/03/04 13:14:24;;;;;;;9.70;5.47;;;5.10;99.90;;;;;;5023932;28;20445;-45